sensor_id;sensor_type;location;lat;lon;timestamp;P1;durP1;ratioP1;P2;durP2;ratioP2
29452;SDS011;16424;50.956;5.320;2023-11-19T00:01:10;4.50;;;4.20;;
29452;SDS011;16424;50.956;5.320;2023-11-19T00:03:36;4.65;;;4.35;;
29452;SDS011;16424;50.956;5.320;2023-11-19T00:06:01;4.15;;;3.85;;
29452;SDS011;16424;50.956;5.320;2023-11-19T00:08:29;4.07;;;3.78;;
29452;SDS011;16424;50.956;5.320;2023-11-19T00:10:55;4.40;;;4.10;;
29452;SDS011;16424;50.956;5.320;2023-11-19T00:13:20;4.68;;;4.20;;
29452;SDS011;16424;50.956;5.320;2023-11-19T00:15:46;4.55;;;4.22;;
29452;SDS011;16424;50.956;5.320;2023-11-19T00:18:12;4.60;;;4.30;;
29452;SDS011;16424;50.956;5.320;2023-11-19T00:20:39;5.00;;;4.57;;
29452;SDS011;16424;50.956;5.320;2023-11-19T00:23:05;6.15;;;5.82;;
29452;SDS011;16424;50.956;5.320;2023-11-19T00:25:30;5.90;;;5.60;;
29452;SDS011;16424;50.956;5.320;2023-11-19T00:27:56;6.63;;;6.13;;
29452;SDS011;16424;50.956;5.320;2023-11-19T00:30:22;5.75;;;5.35;;
29452;SDS011;16424;50.956;5.320;2023-11-19T00:32:47;5.68;;;5.25;;
29452;SDS011;16424;50.956;5.320;2023-11-19T00:35:13;5.95;;;5.38;;
29452;SDS011;16424;50.956;5.320;2023-11-19T00:37:39;5.32;;;4.93;;
29452;SDS011;16424;50.956;5.320;2023-11-19T00:40:05;6.40;;;5.90;;
29452;SDS011;16424;50.956;5.320;2023-11-19T00:42:31;6.85;;;6.35;;
29452;SDS011;16424;50.956;5.320;2023-11-19T00:44:57;6.47;;;6.03;;
29452;SDS011;16424;50.956;5.320;2023-11-19T00:47:23;7.85;;;7.15;;
29452;SDS011;16424;50.956;5.320;2023-11-19T00:49:49;7.90;;;7.20;;
29452;SDS011;16424;50.956;5.320;2023-11-19T00:52:15;8.10;;;7.28;;
29452;SDS011;16424;50.956;5.320;2023-11-19T00:54:41;12.45;;;10.18;;
29452;SDS011;16424;50.956;5.320;2023-11-19T00:57:07;11.48;;;10.57;;
29452;SDS011;16424;50.956;5.320;2023-11-19T00:59:33;11.52;;;10.30;;
29452;SDS011;16424;50.956;5.320;2023-11-19T01:01:59;11.07;;;10.05;;
29452;SDS011;16424;50.956;5.320;2023-11-19T01:04:28;10.13;;;9.43;;
29452;SDS011;16424;50.956;5.320;2023-11-19T01:06:54;11.32;;;10.43;;
29452;SDS011;16424;50.956;5.320;2023-11-19T01:09:20;18.48;;;10.30;;
29452;SDS011;16424;50.956;5.320;2023-11-19T01:11:46;12.07;;;11.18;;
29452;SDS011;16424;50.956;5.320;2023-11-19T01:14:11;13.07;;;11.93;;
29452;SDS011;16424;50.956;5.320;2023-11-19T01:16:37;14.45;;;12.02;;
29452;SDS011;16424;50.956;5.320;2023-11-19T01:19:03;13.02;;;12.00;;
29452;SDS011;16424;50.956;5.320;2023-11-19T01:21:30;13.20;;;12.02;;
29452;SDS011;16424;50.956;5.320;2023-11-19T01:23:57;19.08;;;17.80;;
29452;SDS011;16424;50.956;5.320;2023-11-19T01:26:23;12.45;;;9.13;;
29452;SDS011;16424;50.956;5.320;2023-11-19T01:28:49;9.73;;;8.80;;
29452;SDS011;16424;50.956;5.320;2023-11-19T01:31:17;17.13;;;10.40;;
29452;SDS011;16424;50.956;5.320;2023-11-19T01:33:43;19.58;;;11.25;;
29452;SDS011;16424;50.956;5.320;2023-11-19T01:36:09;13.30;;;12.02;;
29452;SDS011;16424;50.956;5.320;2023-11-19T01:38:38;13.50;;;12.13;;
29452;SDS011;16424;50.956;5.320;2023-11-19T01:41:04;13.60;;;12.32;;
29452;SDS011;16424;50.956;5.320;2023-11-19T01:43:36;14.23;;;12.70;;
29452;SDS011;16424;50.956;5.320;2023-11-19T01:46:04;20.88;;;17.73;;
29452;SDS011;16424;50.956;5.320;2023-11-19T01:48:31;21.10;;;19.40;;
29452;SDS011;16424;50.956;5.320;2023-11-19T01:50:59;21.98;;;20.38;;
29452;SDS011;16424;50.956;5.320;2023-11-19T01:53:26;23.42;;;21.08;;
29452;SDS011;16424;50.956;5.320;2023-11-19T01:55:52;29.70;;;27.50;;
29452;SDS011;16424;50.956;5.320;2023-11-19T01:58:18;29.85;;;27.75;;
29452;SDS011;16424;50.956;5.320;2023-11-19T02:00:44;33.25;;;30.67;;
29452;SDS011;16424;50.956;5.320;2023-11-19T02:03:10;33.22;;;30.95;;
29452;SDS011;16424;50.956;5.320;2023-11-19T02:05:37;41.38;;;38.55;;
29452;SDS011;16424;50.956;5.320;2023-11-19T02:08:04;41.28;;;38.42;;
29452;SDS011;16424;50.956;5.320;2023-11-19T02:10:30;49.42;;;45.85;;
29452;SDS011;16424;50.956;5.320;2023-11-19T02:12:57;62.13;;;58.03;;
29452;SDS011;16424;50.956;5.320;2023-11-19T02:15:23;75.35;;;70.82;;
29452;SDS011;16424;50.956;5.320;2023-11-19T02:17:51;77.80;;;72.80;;
29452;SDS011;16424;50.956;5.320;2023-11-19T02:20:17;91.55;;;86.22;;
29452;SDS011;16424;50.956;5.320;2023-11-19T02:22:45;94.82;;;89.25;;
29452;SDS011;16424;50.956;5.320;2023-11-19T02:25:14;88.60;;;83.32;;
29452;SDS011;16424;50.956;5.320;2023-11-19T02:27:58;97.82;;;91.55;;
29452;SDS011;16424;50.956;5.320;2023-11-19T02:30:25;84.18;;;78.65;;
29452;SDS011;16424;50.956;5.320;2023-11-19T02:33:01;85.28;;;80.05;;
29452;SDS011;16424;50.956;5.320;2023-11-19T02:35:30;86.75;;;80.82;;
29452;SDS011;16424;50.956;5.320;2023-11-19T02:37:56;90.47;;;84.70;;
29452;SDS011;16424;50.956;5.320;2023-11-19T02:40:24;88.68;;;83.47;;
29452;SDS011;16424;50.956;5.320;2023-11-19T02:42:50;79.07;;;74.15;;
29452;SDS011;16424;50.956;5.320;2023-11-19T02:45:16;81.70;;;77.10;;
29452;SDS011;16424;50.956;5.320;2023-11-19T02:47:42;83.20;;;78.30;;
29452;SDS011;16424;50.956;5.320;2023-11-19T02:50:09;72.38;;;67.95;;
29452;SDS011;16424;50.956;5.320;2023-11-19T02:52:41;73.28;;;68.85;;
29452;SDS011;16424;50.956;5.320;2023-11-19T02:55:08;82.50;;;76.93;;
29452;SDS011;16424;50.956;5.320;2023-11-19T02:57:37;84.53;;;79.07;;
29452;SDS011;16424;50.956;5.320;2023-11-19T03:00:14;86.00;;;81.20;;
29452;SDS011;16424;50.956;5.320;2023-11-19T03:02:41;85.93;;;80.63;;
29452;SDS011;16424;50.956;5.320;2023-11-19T03:05:11;88.95;;;83.35;;
29452;SDS011;16424;50.956;5.320;2023-11-19T03:07:37;86.18;;;80.45;;
29452;SDS011;16424;50.956;5.320;2023-11-19T03:10:03;90.05;;;84.65;;
29452;SDS011;16424;50.956;5.320;2023-11-19T03:12:30;102.18;;;95.70;;
29452;SDS011;16424;50.956;5.320;2023-11-19T03:14:56;111.15;;;104.22;;
29452;SDS011;16424;50.956;5.320;2023-11-19T03:17:22;109.28;;;102.22;;
29452;SDS011;16424;50.956;5.320;2023-11-19T03:19:49;109.78;;;102.63;;
29452;SDS011;16424;50.956;5.320;2023-11-19T03:22:14;115.53;;;108.93;;
29452;SDS011;16424;50.956;5.320;2023-11-19T03:24:40;115.55;;;109.18;;
29452;SDS011;16424;50.956;5.320;2023-11-19T03:27:06;121.25;;;113.40;;
29452;SDS011;16424;50.956;5.320;2023-11-19T03:29:32;127.05;;;119.78;;
29452;SDS011;16424;50.956;5.320;2023-11-19T03:31:57;137.55;;;129.27;;
29452;SDS011;16424;50.956;5.320;2023-11-19T03:34:23;137.32;;;129.75;;
29452;SDS011;16424;50.956;5.320;2023-11-19T03:36:48;144.10;;;135.85;;
29452;SDS011;16424;50.956;5.320;2023-11-19T03:39:14;144.77;;;136.48;;
29452;SDS011;16424;50.956;5.320;2023-11-19T03:41:39;147.32;;;138.23;;
29452;SDS011;16424;50.956;5.320;2023-11-19T03:44:05;136.20;;;127.93;;
29452;SDS011;16424;50.956;5.320;2023-11-19T03:46:31;143.05;;;134.63;;
29452;SDS011;16424;50.956;5.320;2023-11-19T03:48:56;147.38;;;137.32;;
29452;SDS011;16424;50.956;5.320;2023-11-19T03:51:22;144.40;;;135.77;;
29452;SDS011;16424;50.956;5.320;2023-11-19T03:53:48;141.38;;;133.35;;
29452;SDS011;16424;50.956;5.320;2023-11-19T03:56:13;145.70;;;136.65;;
29452;SDS011;16424;50.956;5.320;2023-11-19T03:58:39;148.50;;;139.40;;
29452;SDS011;16424;50.956;5.320;2023-11-19T04:01:05;139.98;;;131.73;;
29452;SDS011;16424;50.956;5.320;2023-11-19T04:03:35;147.77;;;138.27;;
29452;SDS011;16424;50.956;5.320;2023-11-19T04:06:01;140.02;;;132.05;;
29452;SDS011;16424;50.956;5.320;2023-11-19T04:08:27;149.90;;;141.23;;
29452;SDS011;16424;50.956;5.320;2023-11-19T04:10:53;150.82;;;141.27;;
29452;SDS011;16424;50.956;5.320;2023-11-19T04:13:18;152.52;;;142.88;;
29452;SDS011;16424;50.956;5.320;2023-11-19T04:15:45;144.88;;;136.10;;
29452;SDS011;16424;50.956;5.320;2023-11-19T04:18:10;150.05;;;140.32;;
29452;SDS011;16424;50.956;5.320;2023-11-19T04:20:36;145.32;;;136.55;;
29452;SDS011;16424;50.956;5.320;2023-11-19T04:23:02;155.40;;;146.10;;
29452;SDS011;16424;50.956;5.320;2023-11-19T04:25:27;149.25;;;140.45;;
29452;SDS011;16424;50.956;5.320;2023-11-19T04:27:53;157.02;;;147.88;;
29452;SDS011;16424;50.956;5.320;2023-11-19T04:30:19;148.30;;;139.65;;
29452;SDS011;16424;50.956;5.320;2023-11-19T04:32:45;153.48;;;144.77;;
29452;SDS011;16424;50.956;5.320;2023-11-19T04:35:10;156.77;;;148.27;;
29452;SDS011;16424;50.956;5.320;2023-11-19T04:37:36;153.55;;;144.60;;
29452;SDS011;16424;50.956;5.320;2023-11-19T04:40:03;154.93;;;146.02;;
29452;SDS011;16424;50.956;5.320;2023-11-19T04:42:29;156.80;;;147.57;;
29452;SDS011;16424;50.956;5.320;2023-11-19T04:44:55;155.52;;;146.23;;
29452;SDS011;16424;50.956;5.320;2023-11-19T04:47:20;151.00;;;141.95;;
29452;SDS011;16424;50.956;5.320;2023-11-19T04:49:46;146.27;;;137.50;;
29452;SDS011;16424;50.956;5.320;2023-11-19T04:52:12;156.38;;;146.82;;
29452;SDS011;16424;50.956;5.320;2023-11-19T04:54:43;157.60;;;146.85;;
29452;SDS011;16424;50.956;5.320;2023-11-19T04:57:09;154.85;;;145.63;;
29452;SDS011;16424;50.956;5.320;2023-11-19T04:59:38;134.68;;;126.88;;
29452;SDS011;16424;50.956;5.320;2023-11-19T05:02:04;158.57;;;148.80;;
29452;SDS011;16424;50.956;5.320;2023-11-19T05:04:30;156.95;;;147.45;;
29452;SDS011;16424;50.956;5.320;2023-11-19T05:06:56;156.73;;;146.88;;
29452;SDS011;16424;50.956;5.320;2023-11-19T05:09:22;149.60;;;139.82;;
29452;SDS011;16424;50.956;5.320;2023-11-19T05:11:48;156.63;;;147.50;;
29452;SDS011;16424;50.956;5.320;2023-11-19T05:14:13;158.82;;;149.82;;
29452;SDS011;16424;50.956;5.320;2023-11-19T05:16:39;145.98;;;137.43;;
29452;SDS011;16424;50.956;5.320;2023-11-19T05:19:05;153.10;;;144.23;;
29452;SDS011;16424;50.956;5.320;2023-11-19T05:21:31;153.43;;;144.43;;
29452;SDS011;16424;50.956;5.320;2023-11-19T05:23:57;146.25;;;137.52;;
29452;SDS011;16424;50.956;5.320;2023-11-19T05:26:23;142.45;;;133.40;;
29452;SDS011;16424;50.956;5.320;2023-11-19T05:28:49;137.82;;;128.68;;
29452;SDS011;16424;50.956;5.320;2023-11-19T05:31:15;133.55;;;124.75;;
29452;SDS011;16424;50.956;5.320;2023-11-19T05:33:42;130.23;;;122.18;;
29452;SDS011;16424;50.956;5.320;2023-11-19T05:36:08;120.82;;;113.05;;
29452;SDS011;16424;50.956;5.320;2023-11-19T05:38:35;121.45;;;113.38;;
29452;SDS011;16424;50.956;5.320;2023-11-19T05:41:02;118.35;;;110.72;;
29452;SDS011;16424;50.956;5.320;2023-11-19T05:43:28;115.90;;;108.65;;
29452;SDS011;16424;50.956;5.320;2023-11-19T05:45:53;117.38;;;109.82;;
29452;SDS011;16424;50.956;5.320;2023-11-19T05:48:19;104.25;;;97.38;;
29452;SDS011;16424;50.956;5.320;2023-11-19T05:50:45;118.35;;;111.15;;
29452;SDS011;16424;50.956;5.320;2023-11-19T05:53:11;108.20;;;101.10;;
29452;SDS011;16424;50.956;5.320;2023-11-19T05:55:39;107.70;;;100.82;;
29452;SDS011;16424;50.956;5.320;2023-11-19T05:58:14;105.32;;;98.03;;
29452;SDS011;16424;50.956;5.320;2023-11-19T06:00:40;94.63;;;88.10;;
29452;SDS011;16424;50.956;5.320;2023-11-19T06:03:09;100.47;;;92.97;;
29452;SDS011;16424;50.956;5.320;2023-11-19T06:05:35;101.10;;;94.18;;
29452;SDS011;16424;50.956;5.320;2023-11-19T06:08:00;105.38;;;97.63;;
29452;SDS011;16424;50.956;5.320;2023-11-19T06:10:26;103.95;;;96.00;;
29452;SDS011;16424;50.956;5.320;2023-11-19T06:12:58;97.53;;;90.68;;
29452;SDS011;16424;50.956;5.320;2023-11-19T06:15:28;98.15;;;91.43;;
29452;SDS011;16424;50.956;5.320;2023-11-19T06:17:53;105.72;;;98.43;;
29452;SDS011;16424;50.956;5.320;2023-11-19T06:20:20;113.63;;;106.05;;
29452;SDS011;16424;50.956;5.320;2023-11-19T06:22:45;114.00;;;106.47;;
29452;SDS011;16424;50.956;5.320;2023-11-19T06:25:11;110.30;;;103.13;;
29452;SDS011;16424;50.956;5.320;2023-11-19T06:27:39;111.30;;;104.15;;
29452;SDS011;16424;50.956;5.320;2023-11-19T06:30:06;108.57;;;100.38;;
29452;SDS011;16424;50.956;5.320;2023-11-19T06:32:32;105.45;;;97.78;;
29452;SDS011;16424;50.956;5.320;2023-11-19T06:34:58;108.38;;;100.80;;
29452;SDS011;16424;50.956;5.320;2023-11-19T06:37:23;111.43;;;103.60;;
29452;SDS011;16424;50.956;5.320;2023-11-19T06:39:49;97.25;;;90.32;;
29452;SDS011;16424;50.956;5.320;2023-11-19T06:42:14;92.72;;;86.13;;
29452;SDS011;16424;50.956;5.320;2023-11-19T06:44:40;93.00;;;86.78;;
29452;SDS011;16424;50.956;5.320;2023-11-19T06:47:06;96.78;;;90.45;;
29452;SDS011;16424;50.956;5.320;2023-11-19T06:49:31;99.25;;;91.63;;
29452;SDS011;16424;50.956;5.320;2023-11-19T06:51:58;92.68;;;86.40;;
29452;SDS011;16424;50.956;5.320;2023-11-19T06:54:23;94.88;;;88.25;;
29452;SDS011;16424;50.956;5.320;2023-11-19T06:56:49;98.07;;;90.95;;
29452;SDS011;16424;50.956;5.320;2023-11-19T06:59:15;100.72;;;93.78;;
29452;SDS011;16424;50.956;5.320;2023-11-19T07:01:40;100.28;;;94.03;;
29452;SDS011;16424;50.956;5.320;2023-11-19T07:04:10;101.25;;;93.75;;
29452;SDS011;16424;50.956;5.320;2023-11-19T07:06:38;95.80;;;89.53;;
29452;SDS011;16424;50.956;5.320;2023-11-19T07:09:08;96.80;;;90.50;;
29452;SDS011;16424;50.956;5.320;2023-11-19T07:11:37;103.15;;;96.63;;
29452;SDS011;16424;50.956;5.320;2023-11-19T07:14:04;104.53;;;97.03;;
29452;SDS011;16424;50.956;5.320;2023-11-19T07:16:31;103.20;;;96.53;;
29452;SDS011;16424;50.956;5.320;2023-11-19T07:18:59;109.55;;;102.13;;
29452;SDS011;16424;50.956;5.320;2023-11-19T07:21:25;109.00;;;101.38;;
29452;SDS011;16424;50.956;5.320;2023-11-19T07:23:54;114.15;;;106.35;;
29452;SDS011;16424;50.956;5.320;2023-11-19T07:26:21;106.93;;;99.70;;
29452;SDS011;16424;50.956;5.320;2023-11-19T07:28:47;104.15;;;97.57;;
29452;SDS011;16424;50.956;5.320;2023-11-19T07:31:13;101.53;;;95.03;;
29452;SDS011;16424;50.956;5.320;2023-11-19T07:33:39;91.78;;;85.75;;
29452;SDS011;16424;50.956;5.320;2023-11-19T07:36:07;88.82;;;83.18;;
29452;SDS011;16424;50.956;5.320;2023-11-19T07:38:34;91.25;;;84.90;;
29452;SDS011;16424;50.956;5.320;2023-11-19T07:41:00;87.35;;;81.00;;
29452;SDS011;16424;50.956;5.320;2023-11-19T07:43:25;85.55;;;79.55;;
29452;SDS011;16424;50.956;5.320;2023-11-19T07:45:51;83.95;;;77.93;;
29452;SDS011;16424;50.956;5.320;2023-11-19T07:48:17;77.47;;;71.50;;
29452;SDS011;16424;50.956;5.320;2023-11-19T07:50:47;62.53;;;57.42;;
29452;SDS011;16424;50.956;5.320;2023-11-19T07:53:15;41.58;;;38.00;;
29452;SDS011;16424;50.956;5.320;2023-11-19T07:55:41;37.13;;;24.40;;
29452;SDS011;16424;50.956;5.320;2023-11-19T07:58:08;25.60;;;12.82;;
29452;SDS011;16424;50.956;5.320;2023-11-19T08:00:35;26.80;;;10.25;;
29452;SDS011;16424;50.956;5.320;2023-11-19T08:03:01;18.95;;;7.03;;
29452;SDS011;16424;50.956;5.320;2023-11-19T08:05:26;16.10;;;6.03;;
29452;SDS011;16424;50.956;5.320;2023-11-19T08:07:52;18.48;;;4.40;;
29452;SDS011;16424;50.956;5.320;2023-11-19T08:10:18;20.70;;;4.82;;
29452;SDS011;16424;50.956;5.320;2023-11-19T08:12:47;20.88;;;4.10;;
29452;SDS011;16424;50.956;5.320;2023-11-19T08:15:13;19.83;;;4.60;;
29452;SDS011;16424;50.956;5.320;2023-11-19T08:17:38;31.30;;;5.63;;
29452;SDS011;16424;50.956;5.320;2023-11-19T08:20:04;19.85;;;4.50;;
29452;SDS011;16424;50.956;5.320;2023-11-19T08:22:35;18.52;;;4.05;;
29452;SDS011;16424;50.956;5.320;2023-11-19T08:25:04;17.00;;;5.45;;
29452;SDS011;16424;50.956;5.320;2023-11-19T08:27:30;18.45;;;5.30;;
29452;SDS011;16424;50.956;5.320;2023-11-19T08:29:56;18.02;;;4.95;;
29452;SDS011;16424;50.956;5.320;2023-11-19T08:32:22;23.58;;;5.53;;
29452;SDS011;16424;50.956;5.320;2023-11-19T08:34:49;19.55;;;6.72;;
29452;SDS011;16424;50.956;5.320;2023-11-19T08:37:15;20.75;;;5.90;;
29452;SDS011;16424;50.956;5.320;2023-11-19T08:39:43;24.88;;;8.88;;
29452;SDS011;16424;50.956;5.320;2023-11-19T08:42:08;16.88;;;7.30;;
29452;SDS011;16424;50.956;5.320;2023-11-19T08:44:34;22.55;;;9.50;;
29452;SDS011;16424;50.956;5.320;2023-11-19T08:47:00;18.63;;;8.43;;
29452;SDS011;16424;50.956;5.320;2023-11-19T08:49:25;23.15;;;7.70;;
29452;SDS011;16424;50.956;5.320;2023-11-19T08:51:51;16.33;;;8.30;;
29452;SDS011;16424;50.956;5.320;2023-11-19T08:54:17;20.52;;;8.77;;
29452;SDS011;16424;50.956;5.320;2023-11-19T08:56:42;19.42;;;8.20;;
29452;SDS011;16424;50.956;5.320;2023-11-19T08:59:08;20.92;;;7.70;;
29452;SDS011;16424;50.956;5.320;2023-11-19T09:01:33;20.02;;;8.38;;
29452;SDS011;16424;50.956;5.320;2023-11-19T09:04:02;24.83;;;7.47;;
29452;SDS011;16424;50.956;5.320;2023-11-19T09:06:29;24.63;;;10.10;;
29452;SDS011;16424;50.956;5.320;2023-11-19T09:08:55;23.63;;;9.30;;
29452;SDS011;16424;50.956;5.320;2023-11-19T09:11:25;17.20;;;9.77;;
29452;SDS011;16424;50.956;5.320;2023-11-19T09:13:51;20.00;;;8.90;;
29452;SDS011;16424;50.956;5.320;2023-11-19T09:16:16;36.05;;;8.43;;
29452;SDS011;16424;50.956;5.320;2023-11-19T09:18:42;17.33;;;7.07;;
29452;SDS011;16424;50.956;5.320;2023-11-19T09:21:08;20.23;;;8.02;;
29452;SDS011;16424;50.956;5.320;2023-11-19T09:23:36;18.63;;;9.00;;
29452;SDS011;16424;50.956;5.320;2023-11-19T09:26:04;17.88;;;8.98;;
29452;SDS011;16424;50.956;5.320;2023-11-19T09:28:31;17.27;;;9.80;;
29452;SDS011;16424;50.956;5.320;2023-11-19T09:30:56;21.20;;;8.68;;
29452;SDS011;16424;50.956;5.320;2023-11-19T09:33:23;12.27;;;6.70;;
29452;SDS011;16424;50.956;5.320;2023-11-19T09:35:49;18.13;;;10.15;;
29452;SDS011;16424;50.956;5.320;2023-11-19T09:38:15;21.55;;;10.35;;
29452;SDS011;16424;50.956;5.320;2023-11-19T09:40:42;22.75;;;11.02;;
29452;SDS011;16424;50.956;5.320;2023-11-19T09:43:07;22.02;;;8.20;;
29452;SDS011;16424;50.956;5.320;2023-11-19T09:45:39;18.30;;;8.15;;
29452;SDS011;16424;50.956;5.320;2023-11-19T09:48:17;16.80;;;7.80;;
29452;SDS011;16424;50.956;5.320;2023-11-19T09:50:47;17.55;;;6.78;;
29452;SDS011;16424;50.956;5.320;2023-11-19T09:53:13;22.85;;;6.93;;
29452;SDS011;16424;50.956;5.320;2023-11-19T09:55:40;16.80;;;4.97;;
29452;SDS011;16424;50.956;5.320;2023-11-19T09:58:07;19.52;;;4.82;;
29452;SDS011;16424;50.956;5.320;2023-11-19T10:00:33;25.55;;;4.78;;
29452;SDS011;16424;50.956;5.320;2023-11-19T10:02:59;16.80;;;3.88;;
29452;SDS011;16424;50.956;5.320;2023-11-19T10:05:25;19.45;;;5.90;;
29452;SDS011;16424;50.956;5.320;2023-11-19T10:07:52;33.35;;;7.60;;
29452;SDS011;16424;50.956;5.320;2023-11-19T10:10:18;24.08;;;4.55;;
29452;SDS011;16424;50.956;5.320;2023-11-19T10:12:47;16.92;;;3.75;;
29452;SDS011;16424;50.956;5.320;2023-11-19T10:15:22;21.80;;;3.85;;
29452;SDS011;16424;50.956;5.320;2023-11-19T10:17:58;20.98;;;4.60;;
29452;SDS011;16424;50.956;5.320;2023-11-19T10:20:23;17.35;;;5.35;;
29452;SDS011;16424;50.956;5.320;2023-11-19T10:22:52;18.60;;;5.53;;
29452;SDS011;16424;50.956;5.320;2023-11-19T10:25:21;17.65;;;5.28;;
29452;SDS011;16424;50.956;5.320;2023-11-19T10:27:48;16.38;;;5.95;;
29452;SDS011;16424;50.956;5.320;2023-11-19T10:30:27;21.30;;;6.57;;
29452;SDS011;16424;50.956;5.320;2023-11-19T10:33:02;24.38;;;6.60;;
29452;SDS011;16424;50.956;5.320;2023-11-19T10:35:28;17.27;;;6.05;;
29452;SDS011;16424;50.956;5.320;2023-11-19T10:37:54;14.13;;;6.85;;
29452;SDS011;16424;50.956;5.320;2023-11-19T10:40:19;22.70;;;6.40;;
29452;SDS011;16424;50.956;5.320;2023-11-19T10:42:45;16.70;;;5.82;;
29452;SDS011;16424;50.956;5.320;2023-11-19T10:45:21;26.98;;;6.63;;
29452;SDS011;16424;50.956;5.320;2023-11-19T10:47:48;17.58;;;5.38;;
29452;SDS011;16424;50.956;5.320;2023-11-19T10:50:16;15.48;;;6.20;;
29452;SDS011;16424;50.956;5.320;2023-11-19T10:52:42;13.05;;;4.85;;
29452;SDS011;16424;50.956;5.320;2023-11-19T10:55:11;18.52;;;5.43;;
29452;SDS011;16424;50.956;5.320;2023-11-19T10:57:40;17.00;;;6.00;;
29452;SDS011;16424;50.956;5.320;2023-11-19T11:00:11;18.80;;;6.00;;
29452;SDS011;16424;50.956;5.320;2023-11-19T11:02:42;20.85;;;6.15;;
29452;SDS011;16424;50.956;5.320;2023-11-19T11:05:12;19.65;;;7.43;;
29452;SDS011;16424;50.956;5.320;2023-11-19T11:07:39;12.98;;;7.22;;
29452;SDS011;16424;50.956;5.320;2023-11-19T11:10:06;20.75;;;6.10;;
29452;SDS011;16424;50.956;5.320;2023-11-19T11:12:37;19.33;;;7.20;;
29452;SDS011;16424;50.956;5.320;2023-11-19T11:15:04;18.20;;;6.75;;
29452;SDS011;16424;50.956;5.320;2023-11-19T11:17:32;20.92;;;6.43;;
29452;SDS011;16424;50.956;5.320;2023-11-19T11:19:58;18.35;;;6.72;;
29452;SDS011;16424;50.956;5.320;2023-11-19T11:22:24;19.27;;;7.80;;
29452;SDS011;16424;50.956;5.320;2023-11-19T11:25:06;16.15;;;7.95;;
29452;SDS011;16424;50.956;5.320;2023-11-19T11:27:49;23.27;;;7.82;;
29452;SDS011;16424;50.956;5.320;2023-11-19T11:30:45;24.20;;;6.07;;
29452;SDS011;16424;50.956;5.320;2023-11-19T11:36:04;16.42;;;5.70;;
29452;SDS011;16424;50.956;5.320;2023-11-19T11:38:42;17.67;;;5.60;;
29452;SDS011;16424;50.956;5.320;2023-11-19T11:41:21;17.02;;;5.53;;
29452;SDS011;16424;50.956;5.320;2023-11-19T11:43:51;15.90;;;5.28;;
29452;SDS011;16424;50.956;5.320;2023-11-19T11:49:02;13.80;;;3.40;;
29452;SDS011;16424;50.956;5.320;2023-11-19T11:57:01;11.88;;;3.60;;
29452;SDS011;16424;50.956;5.320;2023-11-19T12:02:10;13.48;;;4.18;;
29452;SDS011;16424;50.956;5.320;2023-11-19T12:04:37;15.23;;;3.75;;
29452;SDS011;16424;50.956;5.320;2023-11-19T12:07:08;17.77;;;4.75;;
29452;SDS011;16424;50.956;5.320;2023-11-19T12:09:40;12.68;;;5.00;;
29452;SDS011;16424;50.956;5.320;2023-11-19T12:12:22;12.55;;;3.90;;
29452;SDS011;16424;50.956;5.320;2023-11-19T12:17:41;16.55;;;4.25;;
29452;SDS011;16424;50.956;5.320;2023-11-19T12:20:14;14.32;;;4.65;;
29452;SDS011;16424;50.956;5.320;2023-11-19T12:22:41;19.65;;;4.55;;
29452;SDS011;16424;50.956;5.320;2023-11-19T12:25:09;14.30;;;5.38;;
29452;SDS011;16424;50.956;5.320;2023-11-19T12:27:37;19.80;;;6.18;;
29452;SDS011;16424;50.956;5.320;2023-11-19T12:30:05;14.05;;;6.38;;
29452;SDS011;16424;50.956;5.320;2023-11-19T12:32:41;28.23;;;6.50;;
29452;SDS011;16424;50.956;5.320;2023-11-19T12:35:07;19.15;;;6.05;;
29452;SDS011;16424;50.956;5.320;2023-11-19T12:37:46;17.33;;;6.10;;
29452;SDS011;16424;50.956;5.320;2023-11-19T12:40:19;19.88;;;7.18;;
29452;SDS011;16424;50.956;5.320;2023-11-19T12:42:50;26.17;;;6.93;;
29452;SDS011;16424;50.956;5.320;2023-11-19T12:45:17;25.20;;;8.00;;
29452;SDS011;16424;50.956;5.320;2023-11-19T12:47:45;25.85;;;8.70;;
29452;SDS011;16424;50.956;5.320;2023-11-19T12:50:14;17.70;;;7.63;;
29452;SDS011;16424;50.956;5.320;2023-11-19T12:52:42;18.98;;;7.93;;
29452;SDS011;16424;50.956;5.320;2023-11-19T12:55:50;25.90;;;7.85;;
29452;SDS011;16424;50.956;5.320;2023-11-19T12:57:57;19.70;;;6.90;;
29452;SDS011;16424;50.956;5.320;2023-11-19T13:00:25;18.73;;;7.32;;
29452;SDS011;16424;50.956;5.320;2023-11-19T13:02:53;14.98;;;7.57;;
29452;SDS011;16424;50.956;5.320;2023-11-19T13:05:24;18.63;;;7.78;;
29452;SDS011;16424;50.956;5.320;2023-11-19T13:08:03;17.40;;;7.60;;
29452;SDS011;16424;50.956;5.320;2023-11-19T13:13:15;17.45;;;6.00;;
29452;SDS011;16424;50.956;5.320;2023-11-19T13:15:41;19.40;;;6.93;;
29452;SDS011;16424;50.956;5.320;2023-11-19T13:18:10;15.77;;;6.65;;
29452;SDS011;16424;50.956;5.320;2023-11-19T13:20:36;13.65;;;6.05;;
29452;SDS011;16424;50.956;5.320;2023-11-19T13:23:02;12.63;;;5.70;;
29452;SDS011;16424;50.956;5.320;2023-11-19T13:25:29;14.20;;;6.32;;
29452;SDS011;16424;50.956;5.320;2023-11-19T13:27:56;21.05;;;6.00;;
29452;SDS011;16424;50.956;5.320;2023-11-19T13:30:22;13.68;;;5.05;;
29452;SDS011;16424;50.956;5.320;2023-11-19T13:32:48;14.45;;;7.78;;
29452;SDS011;16424;50.956;5.320;2023-11-19T13:35:15;22.17;;;5.30;;
29452;SDS011;16424;50.956;5.320;2023-11-19T13:37:42;19.38;;;4.35;;
29452;SDS011;16424;50.956;5.320;2023-11-19T13:40:08;16.25;;;4.40;;
29452;SDS011;16424;50.956;5.320;2023-11-19T13:42:41;17.60;;;4.28;;
29452;SDS011;16424;50.956;5.320;2023-11-19T13:45:13;23.90;;;6.68;;
29452;SDS011;16424;50.956;5.320;2023-11-19T13:50:13;18.35;;;4.20;;
29452;SDS011;16424;50.956;5.320;2023-11-19T13:52:41;10.75;;;3.42;;
29452;SDS011;16424;50.956;5.320;2023-11-19T13:55:10;19.77;;;3.92;;
29452;SDS011;16424;50.956;5.320;2023-11-19T13:57:36;10.82;;;3.92;;
29452;SDS011;16424;50.956;5.320;2023-11-19T14:00:03;24.98;;;5.82;;
29452;SDS011;16424;50.956;5.320;2023-11-19T14:02:31;22.30;;;6.10;;
29452;SDS011;16424;50.956;5.320;2023-11-19T14:05:00;24.25;;;5.43;;
29452;SDS011;16424;50.956;5.320;2023-11-19T14:07:26;20.60;;;4.68;;
29452;SDS011;16424;50.956;5.320;2023-11-19T14:09:52;16.00;;;4.45;;
29452;SDS011;16424;50.956;5.320;2023-11-19T14:12:19;22.02;;;5.28;;
29452;SDS011;16424;50.956;5.320;2023-11-19T14:14:45;18.73;;;4.90;;
29452;SDS011;16424;50.956;5.320;2023-11-19T14:17:10;13.73;;;4.07;;
29452;SDS011;16424;50.956;5.320;2023-11-19T14:19:36;13.55;;;4.15;;
29452;SDS011;16424;50.956;5.320;2023-11-19T14:22:04;10.05;;;3.97;;
29452;SDS011;16424;50.956;5.320;2023-11-19T14:24:29;21.50;;;4.55;;
29452;SDS011;16424;50.956;5.320;2023-11-19T14:26:55;18.45;;;4.53;;
29452;SDS011;16424;50.956;5.320;2023-11-19T14:29:23;21.17;;;4.55;;
29452;SDS011;16424;50.956;5.320;2023-11-19T14:31:51;17.80;;;3.88;;
29452;SDS011;16424;50.956;5.320;2023-11-19T14:34:17;22.02;;;4.50;;
29452;SDS011;16424;50.956;5.320;2023-11-19T14:36:44;19.10;;;5.28;;
29452;SDS011;16424;50.956;5.320;2023-11-19T14:39:10;17.83;;;4.32;;
29452;SDS011;16424;50.956;5.320;2023-11-19T14:41:35;16.10;;;4.22;;
29452;SDS011;16424;50.956;5.320;2023-11-19T14:44:01;16.98;;;3.55;;
29452;SDS011;16424;50.956;5.320;2023-11-19T14:46:28;13.10;;;3.75;;